createdAt,value
2018-10-12T19:17:08.608Z,78.2
2018-10-12T19:17:29.139Z,78.4
2018-10-12T19:17:49.760Z,78.2
2018-10-12T19:18:10.199Z,79
2018-10-12T19:18:30.631Z,78.9
2018-10-12T19:18:51.118Z,78.9
2018-10-12T19:19:12.047Z,78.7
2018-10-12T19:19:32.699Z,79.4
2018-10-12T19:19:53.012Z,78.7
2018-10-12T19:20:14.162Z,79
2018-10-12T19:20:34.613Z,78.9
2018-10-12T19:21:21.541Z,79.3
2018-10-12T19:21:42.031Z,78.9
2018-10-12T19:22:02.524Z,78.9
2018-10-12T19:22:23.304Z,78.9
2018-10-12T19:22:43.937Z,78.9
2018-10-12T19:23:04.485Z,78.8
2018-10-12T19:23:25.369Z,79.2
2018-10-12T19:23:46.458Z,78.3
2018-10-12T19:24:07.348Z,79.1
2018-10-12T19:24:29.100Z,79.2
2018-10-12T19:24:50.008Z,78.5
2018-10-12T19:25:11.242Z,78.4
2018-10-12T19:25:32.481Z,78.4
2018-10-12T19:25:53.253Z,79
2018-10-12T19:26:14.041Z,78.9
2018-10-12T19:26:35.137Z,79
2018-10-12T19:26:55.588Z,79.1
2018-10-12T19:27:16.370Z,79.1
2018-10-12T19:27:37.716Z,79
2018-10-12T19:27:58.151Z,78.9
2018-10-12T19:28:18.706Z,79
2018-10-12T19:28:40.338Z,79.2
2018-10-12T19:29:01.190Z,78.9
2018-10-12T19:29:22.445Z,79.2
2018-10-12T19:29:45.361Z,78.9
2018-10-12T19:30:06.119Z,79.2
2018-10-12T19:30:26.797Z,79.4
2018-10-12T19:30:47.258Z,79.2
2018-10-12T19:31:08.536Z,79.2
2018-10-12T19:31:29.273Z,79.1
2018-10-12T19:31:52.660Z,78.6
2018-10-12T19:32:14.447Z,79.3
2018-10-12T19:32:35.792Z,79.1
2018-10-12T19:32:57.013Z,79.5
2018-10-12T19:33:18.992Z,79.9
2018-10-12T19:33:42.454Z,79.6
2018-10-12T19:34:03.689Z,79.5
2018-10-12T19:34:24.334Z,79.9
2018-10-12T19:34:45.182Z,79.4
2018-10-12T19:35:05.623Z,79.8
2018-10-12T19:35:26.537Z,79.5
2018-10-12T19:35:47.340Z,79.5
2018-10-12T19:36:07.903Z,79.8
2018-10-12T19:36:30.437Z,79.7
2018-10-12T19:36:51.049Z,79.7
2018-10-12T19:37:11.937Z,79.7
2018-10-12T19:37:32.570Z,79.3
2018-10-12T19:37:52.957Z,79.7
2018-10-12T19:38:13.887Z,79.6
2018-10-12T19:38:35.431Z,79.3
2018-10-12T19:38:56.195Z,79.6
2018-10-12T19:39:16.688Z,79.4
2018-10-12T19:39:37.436Z,79.6
2018-10-12T19:39:58.365Z,79.4
2018-10-12T19:40:18.915Z,79.4
2018-10-12T19:40:39.772Z,79.4
2018-10-12T19:41:00.753Z,79.7
2018-10-12T19:41:21.762Z,80.3
2018-10-12T19:41:43.272Z,80.4
2018-10-12T19:42:05.894Z,80.2
2018-10-12T19:42:26.678Z,80.4
2018-10-12T19:42:47.635Z,80.2
2018-10-12T19:43:08.114Z,79.8
2018-10-12T19:43:28.882Z,79.4
2018-10-12T19:43:50.054Z,80.3
2018-10-12T19:44:10.847Z,80.3
2018-10-12T19:44:31.191Z,80.1
2018-10-12T19:44:52.039Z,79.7
2018-10-12T19:45:12.516Z,79.9
2018-10-12T19:45:33.023Z,79.8
2018-10-12T19:45:54.171Z,79.7
2018-10-12T19:46:14.747Z,80.1
2018-10-12T19:46:34.991Z,79.7
2018-10-12T19:46:55.400Z,80.1
2018-10-12T19:47:15.989Z,80.1
2018-10-12T19:47:37.421Z,80.1
2018-10-12T19:47:57.717Z,79.9
2018-10-12T19:48:18.567Z,80.1
2018-10-12T19:48:39.676Z,79.9
2018-10-12T19:49:00.089Z,80.2
2018-10-12T19:49:20.545Z,79.8
2018-10-12T19:49:40.965Z,79.6
2018-10-12T19:50:01.800Z,80
2018-10-12T19:50:22.218Z,80
2018-10-12T19:50:42.556Z,80
2018-10-12T19:51:02.864Z,80.2
2018-10-12T19:51:24.551Z,80.2
2018-10-12T19:51:45.293Z,80
2018-10-12T19:52:05.827Z,80.2
2018-10-12T19:52:26.683Z,80
2018-10-12T19:52:46.945Z,80.1
2018-10-12T19:53:07.929Z,80
2018-10-12T19:53:28.419Z,80.1
2018-10-12T19:53:49.034Z,80.1
2018-10-12T19:54:09.751Z,79.9
2018-10-12T19:54:30.248Z,79.7
2018-10-12T19:54:50.800Z,80
2018-10-12T19:55:11.242Z,79.9
2018-10-12T19:55:32.353Z,79.7
2018-10-12T19:55:53.666Z,80.1
2018-10-12T19:56:15.472Z,79.8
2018-10-12T19:56:35.888Z,79.9
2018-10-12T19:56:56.562Z,79.6
2018-10-12T19:57:17.026Z,80.1
2018-10-12T19:57:37.774Z,80.1
2018-10-12T19:57:58.202Z,80.3
2018-10-12T19:58:18.726Z,80.2
2018-10-12T19:58:39.119Z,79.6
2018-10-12T19:58:59.559Z,79.7
2018-10-12T19:59:20.495Z,79.4
2018-10-12T19:59:41.217Z,79.3
2018-10-12T20:00:01.907Z,79.8
2018-10-12T20:00:22.855Z,79.9
2018-10-12T20:00:43.231Z,79.9
2018-10-12T20:01:03.871Z,79.9
2018-10-12T20:01:24.809Z,79.8
2018-10-12T20:01:45.741Z,79.4
2018-10-12T20:02:06.141Z,79.1
2018-10-12T20:02:26.850Z,79.8
2018-10-12T20:02:48.482Z,79.6
2018-10-12T20:03:09.304Z,79.7
2018-10-12T20:03:29.862Z,79.6
2018-10-12T20:03:50.355Z,79.6
2018-10-12T20:04:11.148Z,79.6
2018-10-12T20:04:31.991Z,79.4
2018-10-12T20:04:52.322Z,79.7
2018-10-12T20:05:13.052Z,79.2
2018-10-12T20:05:34.002Z,79.1
2018-10-12T20:05:54.766Z,79.2
2018-10-12T20:06:15.293Z,78.8
2018-10-12T20:06:35.909Z,79.1
2018-10-12T20:06:56.412Z,79.3
2018-10-12T20:07:16.788Z,78.9
2018-10-12T20:07:37.384Z,79.2
2018-10-12T20:07:58.093Z,78.3
2018-10-12T20:08:18.670Z,78.5
2018-10-12T20:08:39.100Z,78.6
2018-10-12T20:08:59.471Z,78.6
2018-10-12T20:09:19.931Z,78.9
2018-10-12T20:09:40.556Z,78.5
2018-10-12T20:10:01.670Z,78.6
2018-10-12T20:10:22.783Z,78.7
2018-10-12T20:10:43.383Z,78.4
2018-10-12T20:11:04.336Z,78.4
2018-10-12T20:11:25.775Z,78.4
2018-10-12T20:11:46.233Z,78.2
2018-10-12T20:12:07.281Z,78.3
2018-10-12T20:12:27.859Z,78.1
2018-10-12T20:12:49.322Z,78.5
2018-10-12T20:13:09.795Z,78.5
2018-10-12T20:13:30.442Z,78.4
2018-10-12T20:13:51.060Z,78.5
2018-10-12T20:14:11.721Z,78.6
2018-10-12T20:14:32.823Z,78.2
2018-10-12T20:14:53.463Z,78.3
2018-10-12T20:15:14.527Z,78.4
2018-10-12T20:15:34.923Z,78.7
2018-10-12T20:15:55.273Z,78.2
2018-10-12T20:16:16.608Z,78.3
2018-10-12T20:16:37.936Z,78.1
2018-10-12T20:16:58.835Z,78.2
2018-10-12T20:17:19.477Z,78.4
2018-10-12T20:17:39.942Z,78.5
2018-10-12T20:18:01.075Z,78.3
2018-10-12T20:18:22.767Z,78.2
2018-10-12T20:18:43.479Z,78.4
2018-10-12T20:19:04.676Z,78.3
2018-10-12T20:19:25.332Z,78.3
2018-10-12T20:19:45.775Z,78.4
2018-10-12T20:20:06.973Z,78.2
2018-10-12T20:20:28.541Z,78
2018-10-12T20:20:49.458Z,78.1
2018-10-12T20:21:09.728Z,78.1
2018-10-12T20:21:30.179Z,78.2
2018-10-12T20:21:51.131Z,78.1
2018-10-12T20:22:11.933Z,78.2
2018-10-12T20:22:32.458Z,78.1
2018-10-12T20:22:53.582Z,78.2
2018-10-12T20:23:14.040Z,78.1
2018-10-12T20:23:34.436Z,78.4
2018-10-12T20:23:54.934Z,78
2018-10-12T20:24:15.202Z,78.3
2018-10-12T20:24:35.732Z,78.1
2018-10-12T20:24:56.038Z,78.1
2018-10-12T20:25:16.441Z,78.1
2018-10-12T20:25:36.843Z,78.2
2018-10-12T20:25:57.495Z,78.2
2018-10-12T20:26:17.967Z,78.2
2018-10-12T20:26:38.389Z,78.2
2018-10-12T20:26:58.794Z,78.3
2018-10-12T20:27:19.581Z,77.9
2018-10-12T20:27:39.917Z,78.2
2018-10-12T20:28:00.314Z,78.1
2018-10-12T20:28:23.032Z,78.1
2018-10-12T20:28:43.512Z,78.3
2018-10-12T20:29:04.144Z,78.1
2018-10-12T20:29:27.290Z,78.2
2018-10-12T20:29:47.801Z,77.6
2018-10-12T20:30:08.258Z,77.9
2018-10-12T20:30:28.502Z,78.2
2018-10-12T20:30:48.788Z,78.3
2018-10-12T20:31:09.237Z,78.3
2018-10-12T20:31:29.742Z,77.8
